Time,TemperatureF,DewpointF,PressureIn,WindDirection,WindDirectionDegrees,WindSpeedMPH,WindSpeedGustMPH,Humidity,HourlyPrecipIn,Conditions,Clouds,dailyrainin,SoftwareType,DateUTC
2013-06-06 00:03:00,61.0,61.0,-100.00,SE,143,4.0,-999.0,100,0.00,,,0.00,,2013-06-06 04:03:00,
2013-06-06 00:13:00,61.0,61.0,-100.00,SE,143,4.0,-999.0,100,0.00,,,0.00,,2013-06-06 04:13:00,
2013-06-06 00:53:00,62.0,62.0,-100.00,ESE,109,4.0,-999.0,100,0.00,,,-99.99,,2013-06-06 04:53:00,
2013-06-06 01:02:00,62.0,62.0,-100.00,ESE,109,4.0,-999.0,100,0.00,,,-99.99,,2013-06-06 05:02:00,
2013-06-06 01:12:00,62.0,62.0,-100.00,ESE,109,4.0,-999.0,100,0.00,,,-99.99,,2013-06-06 05:12:00,
2013-06-06 01:52:00,60.0,60.0,-100.00,SE,139,3.0,-999.0,100,0.00,,,0.00,,2013-06-06 05:52:00,
2013-06-06 02:02:00,60.0,60.0,-100.00,SE,139,3.0,-999.0,100,0.00,,,0.00,,2013-06-06 06:02:00,
2013-06-06 02:12:00,60.0,60.0,-100.00,SE,139,3.0,-999.0,100,0.00,,,0.00,,2013-06-06 06:12:00,
2013-06-06 02:52:00,61.0,61.0,-100.00,SE,146,3.0,-999.0,100,0.00,,,0.00,,2013-06-06 06:52:00,
2013-06-06 03:02:00,61.0,61.0,-100.00,SE,146,3.0,-999.0,100,0.00,,,0.00,,2013-06-06 07:02:00,
2013-06-06 03:12:00,61.0,61.0,-100.00,SE,146,3.0,-999.0,100,0.00,,,0.00,,2013-06-06 07:12:00,
2013-06-06 03:52:00,60.0,60.0,-100.00,North,349,1.0,-999.0,100,0.00,,,0.00,,2013-06-06 07:52:00,
2013-06-06 04:02:00,60.0,60.0,-100.00,North,349,1.0,-999.0,100,0.00,,,0.00,,2013-06-06 08:02:00,
2013-06-06 04:12:00,60.0,60.0,-100.00,North,349,1.0,-999.0,100,0.00,,,0.00,,2013-06-06 08:12:00,
2013-06-06 04:52:00,60.0,60.0,-100.00,ENE,67,1.0,-999.0,100,0.00,,,0.00,,2013-06-06 08:52:00,
2013-06-06 05:02:00,60.0,60.0,-100.00,ENE,67,1.0,-999.0,100,0.00,,,0.00,,2013-06-06 09:02:00,
2013-06-06 05:12:00,60.0,60.0,-100.00,ENE,67,1.0,-999.0,100,0.00,,,0.00,,2013-06-06 09:12:00,
2013-06-06 05:53:00,60.0,60.0,-100.00,East,79,2.0,-999.0,100,0.00,,,0.00,,2013-06-06 09:53:00,
2013-06-06 06:03:00,60.0,60.0,-100.00,East,79,2.0,-999.0,100,0.00,,,0.00,,2013-06-06 10:03:00,
2013-06-06 06:12:00,60.0,60.0,-100.00,East,79,2.0,-999.0,100,0.00,,,0.00,,2013-06-06 10:12:00,
2013-06-06 06:53:00,60.0,60.0,-100.00,ENE,78,5.0,-999.0,100,0.00,,,0.00,,2013-06-06 10:53:00,
2013-06-06 07:02:00,60.0,60.0,-100.00,ENE,78,5.0,-999.0,100,0.00,,,0.00,,2013-06-06 11:02:00,
2013-06-06 07:12:00,60.0,60.0,-100.00,ENE,78,5.0,-999.0,100,0.00,,,0.00,,2013-06-06 11:12:00,
2013-06-06 07:52:00,62.0,62.0,-100.00,ESE,117,6.0,-999.0,100,0.00,,,0.00,,2013-06-06 11:52:00,
2013-06-06 08:03:00,62.0,62.0,-100.00,ESE,117,6.0,-999.0,100,0.00,,,0.00,,2013-06-06 12:03:00,
2013-06-06 08:13:00,62.0,62.0,-100.00,ESE,117,6.0,-999.0,100,0.00,,,0.00,,2013-06-06 12:13:00,
2013-06-06 08:53:00,62.0,60.0,-100.00,ESE,123,10.0,-999.0,94,0.00,,,0.00,,2013-06-06 12:53:00,
2013-06-06 09:03:00,62.0,60.0,-100.00,ESE,123,10.0,-999.0,94,0.00,,,0.00,,2013-06-06 13:03:00,
2013-06-06 09:13:00,62.0,60.0,-100.00,ESE,123,10.0,-999.0,94,0.00,,,0.00,,2013-06-06 13:13:00,
2013-06-06 09:53:00,65.0,59.0,-100.00,ESE,122,9.0,-999.0,82,0.00,,,0.00,,2013-06-06 13:53:00,
2013-06-06 10:03:00,65.0,59.0,-100.00,ESE,122,9.0,-999.0,82,0.00,,,0.00,,2013-06-06 14:03:00,
2013-06-06 10:13:00,65.0,59.0,-100.00,ESE,122,9.0,-999.0,82,0.00,,,0.00,,2013-06-06 14:13:00,
2013-06-06 10:53:00,64.0,59.0,-100.00,ESE,112,9.0,-999.0,85,0.00,,,0.00,,2013-06-06 14:53:00,
2013-06-06 11:03:00,64.0,59.0,-100.00,ESE,112,9.0,-999.0,85,0.00,,,0.00,,2013-06-06 15:03:00,
2013-06-06 11:13:00,64.0,59.0,-100.00,ESE,112,9.0,-999.0,85,0.00,,,0.00,,2013-06-06 15:13:00,
2013-06-06 12:53:00,66.0,61.0,-100.00,ESE,112,9.0,-999.0,83,0.00,,,0.00,,2013-06-06 16:53:00,
2013-06-06 13:03:00,66.0,61.0,-100.00,ESE,112,9.0,-999.0,83,0.00,,,0.00,,2013-06-06 17:03:00,
2013-06-06 13:13:00,66.0,61.0,-100.00,ESE,112,9.0,-999.0,83,0.00,,,0.00,,2013-06-06 17:13:00,
2013-06-06 13:53:00,67.0,60.0,-100.00,ESE,113,11.0,-999.0,79,0.00,,,0.00,,2013-06-06 17:53:00,
2013-06-06 14:03:00,67.0,60.0,-100.00,ESE,113,11.0,-999.0,79,0.00,,,0.00,,2013-06-06 18:03:00,
2013-06-06 14:13:00,67.0,60.0,-100.00,ESE,113,11.0,-999.0,79,0.00,,,0.00,,2013-06-06 18:13:00,
2013-06-06 15:53:00,67.0,63.0,-100.00,ESE,114,11.0,-999.0,86,0.00,,,0.00,,2013-06-06 19:53:00,
2013-06-06 16:03:00,67.0,63.0,-100.00,ESE,114,11.0,-999.0,86,0.00,,,0.00,,2013-06-06 20:03:00,
2013-06-06 16:13:00,67.0,63.0,-100.00,ESE,114,11.0,-999.0,86,0.00,,,0.00,,2013-06-06 20:13:00,
2013-06-06 16:53:00,67.0,63.0,-100.00,ESE,121,11.0,-999.0,87,0.00,,,0.00,,2013-06-06 20:53:00,
2013-06-06 17:03:00,67.0,63.0,-100.00,ESE,121,11.0,-999.0,87,0.00,,,0.00,,2013-06-06 21:03:00,
2013-06-06 17:13:00,67.0,63.0,-100.00,ESE,121,11.0,-999.0,87,0.00,,,0.00,,2013-06-06 21:13:00,
2013-06-06 17:53:00,66.0,63.0,-100.00,SE,124,13.0,-999.0,89,0.00,,,0.00,,2013-06-06 21:53:00,
2013-06-06 18:03:00,66.0,63.0,-100.00,SE,124,13.0,-999.0,89,0.00,,,0.00,,2013-06-06 22:03:00,
2013-06-06 18:13:00,66.0,63.0,-100.00,SE,124,13.0,-999.0,89,0.00,,,0.00,,2013-06-06 22:13:00,
2013-06-06 18:53:00,66.0,63.0,-100.00,ESE,123,11.0,-999.0,91,0.00,,,0.00,,2013-06-06 22:53:00,
2013-06-06 19:03:00,66.0,63.0,-100.00,ESE,123,11.0,-999.0,91,0.00,,,0.00,,2013-06-06 23:03:00,
2013-06-06 19:13:00,66.0,63.0,-100.00,ESE,123,11.0,-999.0,91,0.00,,,0.00,,2013-06-06 23:13:00,
2013-06-06 19:52:00,65.0,63.0,-100.00,SE,131,10.0,-999.0,92,0.00,,,0.00,,2013-06-06 23:52:00,
2013-06-06 20:02:00,65.0,63.0,-100.00,SE,131,10.0,-999.0,92,0.00,,,0.00,,2013-06-07 00:02:00,
2013-06-06 20:13:00,65.0,63.0,-100.00,SE,131,10.0,-999.0,92,0.00,,,0.00,,2013-06-07 00:13:00,
2013-06-06 20:52:00,64.0,59.0,-100.00,ESE,118,9.0,-999.0,85,0.00,,,0.00,,2013-06-07 00:52:00,
2013-06-06 21:03:00,64.0,59.0,-100.00,ESE,118,9.0,-999.0,85,0.00,,,0.00,,2013-06-07 01:03:00,
2013-06-06 21:12:00,64.0,59.0,-100.00,ESE,118,9.0,-999.0,85,0.00,,,0.00,,2013-06-07 01:12:00,
2013-06-06 21:53:00,64.0,60.0,-100.00,ESE,123,10.0,-999.0,87,0.00,,,0.00,,2013-06-07 01:53:00,
2013-06-06 22:02:00,64.0,60.0,-100.00,ESE,123,10.0,-999.0,87,0.00,,,0.00,,2013-06-07 02:02:00,
2013-06-06 22:12:00,64.0,60.0,-100.00,ESE,123,10.0,-999.0,87,0.00,,,0.00,,2013-06-07 02:12:00,
2013-06-06 22:52:00,65.0,62.0,-100.00,ESE,123,10.0,-999.0,91,0.00,,,0.00,,2013-06-07 02:52:00,
2013-06-06 23:02:00,65.0,62.0,-100.00,ESE,123,10.0,-999.0,91,0.00,,,0.00,,2013-06-07 03:02:00,
2013-06-06 23:12:00,65.0,62.0,-100.00,ESE,123,10.0,-999.0,91,0.00,,,0.00,,2013-06-07 03:12:00,
2013-06-06 23:53:00,65.0,64.0,-100.00,SE,131,10.0,-999.0,98,0.00,,,0.00,,2013-06-07 03:53:00,